Terminal Aerodrome Forecast
Issued by NWS Mt. Holly, NJ

Home | Current Version | Previous Version | Text Only | Print | Product List | Glossary On
Versions: 1 2 3 4 5 6 7 8 9 10 11 12 13 14 15 16
000
FTUS41 KPHI 051827 CCA
TAFTTN
TAF COR
KTTN 051827Z 0518/0618 30007KT P6SM SCT025
      TEMPO 0518/0520 BKN025
     FM052200 31010KT P6SM BKN040
     FM060000 32006KT P6SM SCT040
     FM060600 35004KT P6SM SCT250
     FM061200 07006KT P6SM OVC250=

USA.gov is the U.S. government's official web portal to all federal, state and local government web resources and services.